createdAt,value
2023-11-30T00:00:19.828Z,17.00
2023-11-30T00:00:52.358Z,16.67
2023-11-30T00:01:25.327Z,16.00
2023-11-30T00:01:57.949Z,16.00
2023-11-30T00:02:33.283Z,16.00
2023-11-30T00:03:05.868Z,16.00
2023-11-30T00:03:38.498Z,16.00
2023-11-30T00:04:11.070Z,16.00
2023-11-30T00:04:43.652Z,16.00
2023-11-30T00:05:16.173Z,16.00
2023-11-30T00:05:48.698Z,16.00
2023-11-30T00:06:21.292Z,16.00
2023-11-30T00:06:53.803Z,16.00
2023-11-30T00:07:26.315Z,16.00
2023-11-30T00:07:58.846Z,15.33
2023-11-30T00:08:31.370Z,15.00
2023-11-30T00:09:04.575Z,15.00
2023-11-30T00:09:37.607Z,15.00
2023-11-30T00:10:10.216Z,15.00
2023-11-30T00:10:42.713Z,14.33
2023-11-30T00:11:15.234Z,14.00
2023-11-30T00:11:47.787Z,14.00
2023-11-30T00:12:20.316Z,14.00
2023-11-30T00:12:52.804Z,14.00
2023-11-30T00:13:25.309Z,14.00
2023-11-30T00:13:57.881Z,14.00
2023-11-30T00:14:31.565Z,14.00
2023-11-30T00:15:04.310Z,14.00
2023-11-30T00:15:36.849Z,14.00
2023-11-30T00:16:09.501Z,14.00
2023-11-30T00:16:42.051Z,14.00
2023-11-30T00:17:14.568Z,13.67
2023-11-30T00:17:47.175Z,13.00
2023-11-30T00:18:19.745Z,13.00
2023-11-30T00:18:52.321Z,13.00
2023-11-30T00:19:24.841Z,13.00
2023-11-30T00:19:57.320Z,13.00
2023-11-30T00:20:29.802Z,13.00
2023-11-30T00:21:02.352Z,13.00
2023-11-30T00:21:34.887Z,13.00
2023-11-30T00:22:07.361Z,13.00
2023-11-30T00:22:40.278Z,13.00
2023-11-30T00:23:12.902Z,12.33
2023-11-30T00:23:45.445Z,12.00
2023-11-30T00:24:17.936Z,12.00
2023-11-30T00:24:50.472Z,12.00
2023-11-30T00:25:23.003Z,13.00
2023-11-30T00:25:55.546Z,13.00
2023-11-30T00:26:28.100Z,13.00
2023-11-30T00:27:00.645Z,13.00
2023-11-30T00:27:33.170Z,12.67
2023-11-30T00:28:05.693Z,12.00
2023-11-30T00:28:38.194Z,12.00
2023-11-30T00:29:10.801Z,12.00
2023-11-30T00:29:43.343Z,12.00
2023-11-30T00:30:16.325Z,12.00
2023-11-30T00:30:48.852Z,12.00
2023-11-30T00:31:21.418Z,12.00
2023-11-30T00:31:54.039Z,12.00
2023-11-30T00:32:26.557Z,12.00
2023-11-30T00:32:59.176Z,12.00
2023-11-30T00:33:31.752Z,12.00
2023-11-30T00:34:04.297Z,12.00
2023-11-30T00:34:36.832Z,12.00
2023-11-30T00:35:09.401Z,12.00
2023-11-30T00:35:41.979Z,11.00
2023-11-30T00:36:14.542Z,11.00
2023-11-30T00:36:47.121Z,11.00
2023-11-30T00:37:19.656Z,11.00
2023-11-30T00:37:52.229Z,11.00
2023-11-30T00:38:24.779Z,11.00
2023-11-30T00:38:57.332Z,11.00
2023-11-30T00:39:29.911Z,11.67
2023-11-30T00:40:02.517Z,12.00
2023-11-30T00:40:35.306Z,12.00
2023-11-30T00:41:08.244Z,12.00
2023-11-30T00:41:40.720Z,12.00
2023-11-30T00:42:13.329Z,13.00
2023-11-30T00:42:45.961Z,14.33
2023-11-30T00:43:18.662Z,16.33
2023-11-30T00:43:51.178Z,19.00
2023-11-30T00:44:23.875Z,23.67
2023-11-30T00:44:56.477Z,30.67
2023-11-30T00:45:29.051Z,33.00
2023-11-30T00:46:09.366Z,36.33
2023-11-30T00:46:42.695Z,47.33
2023-11-30T00:47:15.452Z,49.33
2023-11-30T00:47:48.071Z,47.67
2023-11-30T00:48:20.754Z,48.67
2023-11-30T00:48:53.318Z,47.33
2023-11-30T00:49:25.852Z,50.67
2023-11-30T00:49:58.392Z,54.00
2023-11-30T00:50:30.909Z,56.00
2023-11-30T00:51:03.451Z,57.67
2023-11-30T00:51:36.206Z,55.33
2023-11-30T00:52:08.699Z,52.00
2023-11-30T00:52:41.222Z,50.00
2023-11-30T00:53:13.729Z,50.00
2023-11-30T00:53:46.209Z,50.00
2023-11-30T00:54:18.726Z,48.67
2023-11-30T00:54:51.210Z,47.33
2023-11-30T00:55:23.746Z,45.33
2023-11-30T00:55:56.422Z,43.67
2023-11-30T00:56:28.919Z,41.00
2023-11-30T00:57:01.422Z,37.00
2023-11-30T00:57:34.032Z,31.67
2023-11-30T00:58:06.566Z,27.00
2023-11-30T00:58:39.089Z,25.33
2023-11-30T00:59:11.628Z,24.67
2023-11-30T00:59:44.152Z,24.00
2023-11-30T01:00:17.164Z,25.00
2023-11-30T01:00:50.080Z,25.00
2023-11-30T01:01:22.627Z,26.00
2023-11-30T01:01:55.287Z,27.67
2023-11-30T01:02:28.115Z,32.00
2023-11-30T01:03:00.710Z,38.00
2023-11-30T01:03:33.371Z,43.00
2023-11-30T01:04:06.074Z,44.00
2023-11-30T01:04:42.636Z,43.33
2023-11-30T01:05:15.167Z,43.00
2023-11-30T01:05:47.744Z,42.67
2023-11-30T01:06:20.325Z,42.00
2023-11-30T01:06:52.818Z,41.00
2023-11-30T01:07:25.312Z,38.00
2023-11-30T01:07:57.965Z,34.67
2023-11-30T01:08:30.493Z,31.00
2023-11-30T01:09:03.033Z,28.33
2023-11-30T01:09:38.095Z,26.00
2023-11-30T01:10:10.801Z,23.67
2023-11-30T01:10:43.928Z,21.00
2023-11-30T01:11:16.414Z,19.33
2023-11-30T01:11:48.953Z,18.33
2023-11-30T01:12:21.513Z,17.00
2023-11-30T01:12:54.029Z,16.00
2023-11-30T01:13:26.625Z,15.00
2023-11-30T01:13:59.115Z,15.00
2023-11-30T01:14:31.583Z,16.00
2023-11-30T01:15:05.328Z,17.00
2023-11-30T01:15:37.903Z,17.00
2023-11-30T01:16:10.667Z,17.00
2023-11-30T01:16:43.213Z,17.00
2023-11-30T01:17:16.006Z,17.33
2023-11-30T01:17:48.632Z,18.00
2023-11-30T01:18:21.308Z,18.00
2023-11-30T01:18:53.914Z,18.00
2023-11-30T01:19:26.449Z,18.00
2023-11-30T01:19:59.028Z,18.00
2023-11-30T01:20:33.867Z,18.00
2023-11-30T01:21:06.826Z,18.00
2023-11-30T01:21:39.361Z,18.00
2023-11-30T01:22:13.136Z,18.67
2023-11-30T01:22:45.681Z,19.00
2023-11-30T01:23:18.231Z,19.33
2023-11-30T01:23:51.216Z,20.00
2023-11-30T01:24:24.271Z,20.00
2023-11-30T01:24:56.810Z,20.00
2023-11-30T01:25:29.313Z,20.00
2023-11-30T01:26:03.994Z,20.00
2023-11-30T01:26:36.601Z,20.00
2023-11-30T01:27:09.259Z,20.00
2023-11-30T01:27:41.828Z,20.67
2023-11-30T01:28:14.360Z,21.00
2023-11-30T01:28:46.852Z,21.33
2023-11-30T01:29:19.372Z,22.00
2023-11-30T01:29:51.921Z,22.67
2023-11-30T01:30:24.500Z,25.00
2023-11-30T01:30:57.042Z,27.00
2023-11-30T01:31:29.589Z,28.67
2023-11-30T01:32:02.089Z,29.00
2023-11-30T01:32:34.808Z,29.00
2023-11-30T01:33:07.405Z,29.00
2023-11-30T01:33:40.031Z,29.00
2023-11-30T01:34:12.731Z,28.00
2023-11-30T01:34:45.244Z,26.67
2023-11-30T01:35:18.272Z,25.00
2023-11-30T01:35:50.938Z,22.00
2023-11-30T01:36:23.522Z,19.33
2023-11-30T01:36:56.180Z,17.67
2023-11-30T01:37:28.729Z,16.33
2023-11-30T01:38:01.286Z,16.00
2023-11-30T01:38:33.793Z,15.00
2023-11-30T01:39:06.306Z,15.00
2023-11-30T01:39:38.853Z,15.00
2023-11-30T01:40:11.564Z,15.00
2023-11-30T01:40:44.117Z,15.33
2023-11-30T01:41:16.682Z,16.00
2023-11-30T01:41:49.240Z,16.00
2023-11-30T01:42:22.765Z,16.67
2023-11-30T01:42:55.544Z,17.67
2023-11-30T01:43:28.683Z,18.00
2023-11-30T01:44:01.186Z,18.00
2023-11-30T01:44:33.714Z,18.00
2023-11-30T01:45:06.712Z,18.00
2023-11-30T01:45:39.380Z,18.00
2023-11-30T01:46:12.199Z,17.00
2023-11-30T01:46:44.769Z,16.00
2023-11-30T01:47:17.712Z,16.00
2023-11-30T01:47:50.407Z,15.33
2023-11-30T01:48:23.184Z,15.00
2023-11-30T01:48:56.060Z,14.33
2023-11-30T01:49:28.881Z,14.00
2023-11-30T01:50:02.474Z,14.00
2023-11-30T01:50:35.144Z,14.00
2023-11-30T01:51:09.733Z,14.00
2023-11-30T01:51:42.783Z,14.00
2023-11-30T01:52:15.534Z,14.00
2023-11-30T01:52:48.335Z,14.00
2023-11-30T01:53:20.865Z,14.33
2023-11-30T01:53:55.045Z,15.67
2023-11-30T01:54:28.505Z,18.00
2023-11-30T01:55:03.521Z,22.00
2023-11-30T01:55:37.017Z,26.00
2023-11-30T01:56:11.998Z,28.33
2023-11-30T01:56:44.794Z,29.33
2023-11-30T01:57:17.404Z,30.00
2023-11-30T01:57:49.978Z,29.67
2023-11-30T01:58:22.540Z,29.00
2023-11-30T01:58:55.198Z,28.33
2023-11-30T01:59:28.370Z,28.00
2023-11-30T02:00:01.191Z,27.67
2023-11-30T02:00:34.039Z,27.00
2023-11-30T02:01:08.099Z,27.00
2023-11-30T02:01:42.479Z,27.00
2023-11-30T02:02:17.519Z,27.00
2023-11-30T02:02:50.504Z,27.00
2023-11-30T02:03:26.149Z,27.33
2023-11-30T02:04:08.807Z,29.67
2023-11-30T02:04:45.370Z,31.67
2023-11-30T02:05:17.967Z,32.00
2023-11-30T02:05:52.737Z,32.00
2023-11-30T02:06:25.374Z,32.00
2023-11-30T02:06:58.394Z,32.67
2023-11-30T02:07:30.902Z,33.00
2023-11-30T02:08:03.402Z,33.00
2023-11-30T02:08:36.034Z,33.00
2023-11-30T02:09:08.609Z,33.67
2023-11-30T02:09:41.145Z,34.67
2023-11-30T02:10:13.669Z,36.00
2023-11-30T02:10:46.251Z,38.00
2023-11-30T02:11:18.806Z,39.00
2023-11-30T02:11:51.325Z,39.33
2023-11-30T02:12:23.867Z,40.00
2023-11-30T02:12:56.424Z,41.00
2023-11-30T02:13:28.963Z,41.00
2023-11-30T02:14:06.110Z,41.00
2023-11-30T02:14:38.643Z,41.67
2023-11-30T02:15:11.202Z,42.00
2023-11-30T02:15:43.749Z,42.00
2023-11-30T02:16:16.349Z,42.00
2023-11-30T02:16:48.898Z,41.00
2023-11-30T02:17:21.454Z,41.00
2023-11-30T02:17:54.033Z,41.00
2023-11-30T02:18:26.615Z,40.67
2023-11-30T02:18:59.898Z,40.00
2023-11-30T02:19:32.442Z,40.00
2023-11-30T02:20:06.049Z,40.00
2023-11-30T02:20:38.546Z,40.00
2023-11-30T02:21:11.093Z,40.00
2023-11-30T02:21:52.973Z,40.00
2023-11-30T02:22:25.489Z,40.33
2023-11-30T02:22:58.030Z,40.67
2023-11-30T02:23:30.538Z,41.00
2023-11-30T02:24:03.334Z,41.00
2023-11-30T02:24:36.043Z,42.00
2023-11-30T02:25:09.221Z,42.33
2023-11-30T02:25:41.744Z,43.00
2023-11-30T02:26:14.248Z,42.00
2023-11-30T02:26:46.781Z,42.00
2023-11-30T02:27:19.339Z,42.00
2023-11-30T02:27:51.881Z,42.00
2023-11-30T02:28:24.405Z,42.33
2023-11-30T02:28:56.921Z,43.33
2023-11-30T02:29:29.408Z,44.67
2023-11-30T02:30:01.984Z,45.33
2023-11-30T02:30:37.286Z,46.00
2023-11-30T02:31:09.932Z,45.33
2023-11-30T02:31:43.112Z,45.00
2023-11-30T02:32:15.740Z,45.00
2023-11-30T02:32:48.252Z,45.00
2023-11-30T02:33:20.906Z,45.00
2023-11-30T02:33:53.508Z,44.33
2023-11-30T02:34:26.018Z,44.00
2023-11-30T02:34:58.542Z,44.00
2023-11-30T02:35:31.108Z,44.00
2023-11-30T02:36:04.054Z,44.00
2023-11-30T02:36:36.634Z,44.00
2023-11-30T02:37:09.154Z,44.00
2023-11-30T02:37:41.642Z,43.67
2023-11-30T02:38:14.150Z,43.00
2023-11-30T02:38:46.680Z,43.00
2023-11-30T02:39:19.253Z,43.00
2023-11-30T02:39:51.764Z,43.00
2023-11-30T02:40:24.283Z,42.67
2023-11-30T02:40:56.793Z,42.00
2023-11-30T02:41:29.994Z,42.33
2023-11-30T02:42:02.536Z,43.00
2023-11-30T02:42:35.067Z,43.00
2023-11-30T02:43:07.570Z,43.00
2023-11-30T02:43:40.087Z,43.00
2023-11-30T02:44:12.701Z,43.00
2023-11-30T02:44:45.204Z,43.00
2023-11-30T02:45:17.740Z,43.33
2023-11-30T02:45:50.330Z,44.00
2023-11-30T02:46:23.092Z,44.33
2023-11-30T02:46:55.625Z,45.00
2023-11-30T02:47:28.171Z,45.00
2023-11-30T02:48:00.853Z,45.00
2023-11-30T02:48:33.466Z,45.00
2023-11-30T02:49:06.038Z,44.00
2023-11-30T02:49:38.583Z,43.67
2023-11-30T02:50:11.092Z,42.67
2023-11-30T02:50:43.568Z,42.00
2023-11-30T02:51:16.093Z,41.67
2023-11-30T02:51:48.630Z,41.00
2023-11-30T02:52:21.289Z,40.67
2023-11-30T02:52:54.212Z,40.00
2023-11-30T02:53:26.712Z,40.00
2023-11-30T02:53:59.907Z,40.00
2023-11-30T02:54:32.532Z,40.00
2023-11-30T02:55:05.438Z,40.00
2023-11-30T02:55:37.974Z,40.00
2023-11-30T02:56:10.830Z,40.33
2023-11-30T02:56:43.433Z,42.00
2023-11-30T02:57:16.001Z,47.33
2023-11-30T02:57:49.810Z,56.00
2023-11-30T02:58:22.361Z,64.00
2023-11-30T02:58:54.853Z,71.00
2023-11-30T02:59:27.390Z,74.00
2023-11-30T02:59:59.947Z,76.00
2023-11-30T03:00:32.504Z,77.33
2023-11-30T03:01:05.210Z,78.33
2023-11-30T03:01:48.729Z,82.67
2023-11-30T03:02:21.359Z,93.00
2023-11-30T03:02:53.935Z,96.33
2023-11-30T03:03:26.563Z,101.00
2023-11-30T03:03:59.214Z,97.33
2023-11-30T03:04:31.785Z,98.67
2023-11-30T03:05:04.804Z,106.00
2023-11-30T03:05:37.367Z,104.00
2023-11-30T03:06:13.367Z,96.67
2023-11-30T03:06:50.693Z,93.67
2023-11-30T03:07:23.280Z,91.67
2023-11-30T03:07:55.892Z,91.00
2023-11-30T03:08:28.435Z,91.00
2023-11-30T03:09:00.992Z,90.00
2023-11-30T03:09:33.577Z,89.33
2023-11-30T03:10:06.783Z,88.00
2023-11-30T03:10:39.340Z,86.00
2023-11-30T03:11:11.845Z,84.00
2023-11-30T03:11:44.358Z,83.00
2023-11-30T03:12:16.896Z,83.00
2023-11-30T03:12:49.479Z,83.33
2023-11-30T03:13:21.979Z,84.00
2023-11-30T03:13:54.525Z,84.00
2023-11-30T03:14:27.018Z,83.67
2023-11-30T03:14:59.721Z,82.33
2023-11-30T03:15:32.330Z,80.33
2023-11-30T03:16:05.222Z,79.00
2023-11-30T03:16:37.794Z,77.67
2023-11-30T03:17:10.368Z,75.67
2023-11-30T03:17:42.920Z,74.00
2023-11-30T03:18:15.583Z,71.00
2023-11-30T03:18:48.270Z,66.00
2023-11-30T03:19:21.698Z,59.33
2023-11-30T03:19:54.359Z,53.33
2023-11-30T03:20:26.885Z,50.67
2023-11-30T03:20:59.452Z,50.00
2023-11-30T03:21:31.999Z,50.33
2023-11-30T03:22:04.531Z,49.33
2023-11-30T03:22:37.053Z,47.33
2023-11-30T03:23:09.554Z,45.67
2023-11-30T03:23:42.080Z,46.67
2023-11-30T03:24:14.736Z,48.00
2023-11-30T03:24:47.306Z,48.33
2023-11-30T03:25:19.846Z,49.00
2023-11-30T03:25:52.413Z,49.67
2023-11-30T03:26:24.929Z,50.00
2023-11-30T03:26:57.606Z,50.00
2023-11-30T03:27:30.162Z,51.00
2023-11-30T03:28:03.647Z,51.33
2023-11-30T03:28:36.184Z,52.00
2023-11-30T03:29:08.784Z,52.67
2023-11-30T03:29:41.935Z,53.67
2023-11-30T03:30:14.585Z,55.67
2023-11-30T03:30:47.215Z,56.67
2023-11-30T03:31:19.747Z,54.67
2023-11-30T03:31:52.308Z,50.67
2023-11-30T03:32:24.867Z,46.33
2023-11-30T03:32:57.970Z,43.67
2023-11-30T03:33:30.782Z,44.00
2023-11-30T03:34:03.726Z,44.00
2023-11-30T03:34:36.239Z,44.00
2023-11-30T03:35:08.821Z,42.33
2023-11-30T03:35:42.805Z,41.00
2023-11-30T03:36:15.366Z,40.33
2023-11-30T03:36:48.034Z,40.00
2023-11-30T03:37:20.599Z,39.67
2023-11-30T03:37:53.119Z,38.67
2023-11-30T03:38:25.649Z,38.67
2023-11-30T03:38:58.245Z,40.00
2023-11-30T03:39:30.802Z,40.33
2023-11-30T03:40:03.557Z,41.00
2023-11-30T03:40:36.081Z,39.67
2023-11-30T03:41:08.583Z,38.33
2023-11-30T03:41:41.101Z,37.33
2023-11-30T03:42:13.637Z,36.67
2023-11-30T03:42:46.155Z,36.00
2023-11-30T03:43:18.668Z,36.00
2023-11-30T03:43:51.379Z,36.00
2023-11-30T03:44:24.001Z,36.33
2023-11-30T03:44:56.634Z,37.00
2023-11-30T03:45:35.594Z,37.00
2023-11-30T03:46:08.485Z,38.00
2023-11-30T03:46:41.163Z,38.00
2023-11-30T03:47:13.711Z,38.67
2023-11-30T03:47:46.225Z,40.00
2023-11-30T03:48:18.808Z,42.67
2023-11-30T03:48:53.246Z,43.00
2023-11-30T03:49:25.783Z,42.33
2023-11-30T03:49:58.271Z,41.33
2023-11-30T03:50:30.787Z,41.00
2023-11-30T03:51:03.335Z,40.67
2023-11-30T03:51:35.928Z,39.67
2023-11-30T03:52:08.425Z,38.67
2023-11-30T03:52:41.000Z,38.00
2023-11-30T03:53:13.562Z,38.00
2023-11-30T03:53:46.096Z,37.33
2023-11-30T03:54:18.707Z,35.67
2023-11-30T03:54:51.286Z,33.00
2023-11-30T03:55:24.737Z,30.67
2023-11-30T03:55:57.284Z,28.33
2023-11-30T03:56:33.029Z,28.00
2023-11-30T03:57:05.608Z,28.67
2023-11-30T03:57:38.205Z,29.00
2023-11-30T03:58:10.692Z,29.33
2023-11-30T03:58:43.215Z,30.00
2023-11-30T03:59:15.693Z,30.00
2023-11-30T03:59:48.481Z,30.00
2023-11-30T04:00:21.507Z,30.00
2023-11-30T04:00:54.038Z,30.00
2023-11-30T04:01:27.195Z,30.00
2023-11-30T04:01:59.912Z,30.33
2023-11-30T04:02:32.671Z,31.00
2023-11-30T04:03:05.263Z,31.00
2023-11-30T04:03:37.871Z,31.67
2023-11-30T04:04:10.446Z,32.00
2023-11-30T04:04:43.363Z,33.00
2023-11-30T04:05:16.200Z,33.67
2023-11-30T04:05:48.746Z,34.67
2023-11-30T04:06:24.867Z,36.33
2023-11-30T04:06:57.440Z,39.33
2023-11-30T04:07:30.903Z,41.33
2023-11-30T04:08:03.578Z,44.67
2023-11-30T04:08:36.318Z,47.33
2023-11-30T04:09:09.888Z,48.67
2023-11-30T04:09:42.518Z,50.67
2023-11-30T04:10:15.094Z,51.67
2023-11-30T04:10:47.648Z,54.33
2023-11-30T04:11:20.196Z,56.00
2023-11-30T04:11:52.800Z,55.67
2023-11-30T04:12:25.876Z,55.00
2023-11-30T04:12:58.429Z,54.33
2023-11-30T04:13:30.919Z,54.00
2023-11-30T04:14:07.721Z,55.00
2023-11-30T04:14:40.208Z,56.00
2023-11-30T04:15:12.783Z,56.00
2023-11-30T04:15:45.300Z,56.00
2023-11-30T04:16:18.786Z,56.00
2023-11-30T04:16:51.311Z,56.33
2023-11-30T04:17:24.308Z,57.00
2023-11-30T04:17:57.132Z,57.33
2023-11-30T04:18:29.808Z,57.00
2023-11-30T04:19:02.973Z,56.00
2023-11-30T04:19:35.458Z,56.00
2023-11-30T04:20:09.633Z,56.00
2023-11-30T04:20:42.115Z,56.00
2023-11-30T04:21:14.985Z,56.00
2023-11-30T04:21:47.481Z,55.00
2023-11-30T04:22:19.967Z,55.00
2023-11-30T04:22:52.558Z,54.67
2023-11-30T04:23:25.052Z,54.00
2023-11-30T04:23:57.698Z,52.33
2023-11-30T04:24:30.625Z,51.67
2023-11-30T04:25:03.327Z,50.33
2023-11-30T04:25:35.845Z,49.33
2023-11-30T04:26:08.598Z,49.33
2023-11-30T04:26:41.112Z,50.33
2023-11-30T04:27:13.615Z,50.67
2023-11-30T04:27:46.121Z,49.33
2023-11-30T04:28:18.653Z,48.67
2023-11-30T04:28:51.183Z,48.00
2023-11-30T04:29:23.721Z,49.00
2023-11-30T04:29:56.256Z,49.33
2023-11-30T04:30:28.780Z,50.33
2023-11-30T04:31:01.835Z,52.00
2023-11-30T04:31:34.566Z,59.00
2023-11-30T04:32:07.641Z,65.00
2023-11-30T04:32:40.277Z,65.00
2023-11-30T04:33:12.864Z,66.67
2023-11-30T04:33:45.425Z,66.67
2023-11-30T04:34:19.804Z,65.33
2023-11-30T04:34:52.359Z,63.67
2023-11-30T04:35:25.116Z,61.33
2023-11-30T04:35:57.652Z,56.67
2023-11-30T04:36:30.225Z,53.33
2023-11-30T04:37:02.796Z,51.67
2023-11-30T04:37:35.337Z,50.00
2023-11-30T04:38:07.820Z,48.00
2023-11-30T04:38:40.298Z,47.00
2023-11-30T04:39:16.337Z,47.00
2023-11-30T04:39:49.626Z,47.00
2023-11-30T04:40:22.590Z,47.00
2023-11-30T04:40:55.135Z,46.00
2023-11-30T04:41:27.725Z,45.33
2023-11-30T04:42:00.310Z,44.33
2023-11-30T04:42:32.868Z,44.00
2023-11-30T04:43:05.410Z,44.00
2023-11-30T04:43:38.568Z,44.00
2023-11-30T04:44:11.192Z,44.00
2023-11-30T04:44:43.703Z,44.00
2023-11-30T04:45:16.306Z,44.00
2023-11-30T04:45:48.833Z,44.33
2023-11-30T04:46:21.780Z,45.00
2023-11-30T04:46:54.329Z,45.00
2023-11-30T04:47:26.876Z,45.00
2023-11-30T04:47:59.597Z,44.67
2023-11-30T04:48:32.303Z,44.00
2023-11-30T04:49:06.155Z,44.00
2023-11-30T04:49:38.654Z,44.00
2023-11-30T04:50:11.658Z,44.00
2023-11-30T04:50:44.225Z,44.00
2023-11-30T04:51:16.821Z,44.00
2023-11-30T04:51:49.387Z,44.00
2023-11-30T04:52:21.872Z,44.00
2023-11-30T04:52:54.344Z,44.00
2023-11-30T04:53:26.817Z,44.00
2023-11-30T04:53:59.775Z,42.67
2023-11-30T04:54:33.444Z,41.67
2023-11-30T04:55:07.386Z,40.67
2023-11-30T04:55:39.893Z,40.00
2023-11-30T04:56:12.759Z,39.00
2023-11-30T04:56:45.353Z,39.33
2023-11-30T04:57:17.998Z,40.00
2023-11-30T04:57:50.572Z,40.00
2023-11-30T04:58:23.101Z,40.00
2023-11-30T04:58:55.604Z,40.00
2023-11-30T04:59:28.141Z,40.00
2023-11-30T05:00:00.699Z,40.33
2023-11-30T05:00:33.330Z,41.00
2023-11-30T05:01:06.236Z,41.33
2023-11-30T05:01:38.874Z,42.00
2023-11-30T05:02:11.730Z,41.00
2023-11-30T05:02:56.248Z,40.00
2023-11-30T05:03:35.857Z,38.67
2023-11-30T05:04:09.764Z,37.33
2023-11-30T05:04:42.536Z,37.00
2023-11-30T05:05:15.127Z,37.00
2023-11-30T05:05:49.708Z,36.33
2023-11-30T05:06:22.246Z,35.67
2023-11-30T05:06:54.806Z,35.00
2023-11-30T05:07:27.411Z,35.00
2023-11-30T05:08:00.009Z,34.33
2023-11-30T05:08:32.537Z,34.00
2023-11-30T05:09:05.149Z,34.67
2023-11-30T05:09:37.693Z,35.00
2023-11-30T05:10:10.233Z,35.00
2023-11-30T05:10:42.754Z,35.00
2023-11-30T05:11:15.278Z,36.00
2023-11-30T05:11:47.909Z,36.33
2023-11-30T05:12:20.823Z,37.00
2023-11-30T05:12:53.349Z,37.00
2023-11-30T05:13:25.858Z,37.00
2023-11-30T05:13:58.413Z,37.00
2023-11-30T05:14:30.912Z,37.67
2023-11-30T05:15:04.247Z,38.00
2023-11-30T05:15:39.592Z,38.33
2023-11-30T05:16:12.267Z,39.00
2023-11-30T05:16:44.793Z,40.00
2023-11-30T05:17:17.286Z,43.00
2023-11-30T05:17:49.819Z,44.67
2023-11-30T05:18:22.368Z,46.33
2023-11-30T05:18:54.905Z,47.67
2023-11-30T05:19:27.412Z,48.00
2023-11-30T05:19:59.960Z,48.00
2023-11-30T05:20:32.828Z,48.00
2023-11-30T05:21:05.601Z,48.00
2023-11-30T05:21:38.157Z,47.00
2023-11-30T05:22:12.447Z,47.00
2023-11-30T05:22:46.786Z,49.33
2023-11-30T05:23:19.317Z,54.67
2023-11-30T05:23:52.431Z,56.00
2023-11-30T05:24:25.010Z,55.33
2023-11-30T05:24:57.552Z,55.00
2023-11-30T05:25:30.631Z,56.00
2023-11-30T05:26:03.226Z,56.00
2023-11-30T05:26:35.730Z,57.33
2023-11-30T05:27:08.280Z,58.00
2023-11-30T05:27:40.844Z,57.67
2023-11-30T05:28:13.363Z,58.00
2023-11-30T05:28:46.804Z,57.00
2023-11-30T05:29:19.299Z,57.00
2023-11-30T05:29:51.802Z,56.33
2023-11-30T05:30:24.306Z,56.67
2023-11-30T05:30:57.018Z,61.33
2023-11-30T05:31:29.542Z,64.67
2023-11-30T05:32:02.165Z,63.67
2023-11-30T05:32:35.110Z,63.00
2023-11-30T05:33:07.983Z,63.00
2023-11-30T05:33:40.667Z,64.33
2023-11-30T05:34:13.284Z,74.67
2023-11-30T05:34:45.861Z,81.67
2023-11-30T05:35:18.425Z,79.00
2023-11-30T05:35:51.582Z,75.33
2023-11-30T05:36:26.323Z,72.67
2023-11-30T05:36:58.880Z,70.00
2023-11-30T05:37:31.363Z,67.00
2023-11-30T05:38:08.771Z,64.00
2023-11-30T05:38:41.274Z,61.67
2023-11-30T05:39:16.523Z,59.00
2023-11-30T05:39:49.070Z,57.00
2023-11-30T05:40:21.620Z,56.67
2023-11-30T05:40:54.145Z,55.67
2023-11-30T05:41:26.647Z,55.00
2023-11-30T05:42:01.900Z,54.33
2023-11-30T05:42:34.572Z,54.00
2023-11-30T05:43:07.415Z,52.67
2023-11-30T05:43:40.071Z,50.67
2023-11-30T05:44:12.620Z,49.67
2023-11-30T05:44:45.153Z,48.33
2023-11-30T05:45:17.708Z,47.33
2023-11-30T05:45:50.270Z,47.00
2023-11-30T05:46:22.992Z,47.00
2023-11-30T05:46:55.516Z,47.00
2023-11-30T05:47:28.106Z,47.00
2023-11-30T05:48:00.718Z,47.00
2023-11-30T05:48:34.845Z,47.00
2023-11-30T05:49:07.785Z,47.33
2023-11-30T05:49:40.306Z,48.33
2023-11-30T05:50:13.821Z,50.67
2023-11-30T05:50:46.414Z,53.00
2023-11-30T05:51:19.126Z,54.67
2023-11-30T05:51:51.721Z,55.00
2023-11-30T05:52:44.535Z,55.00
2023-11-30T05:53:18.728Z,54.00
2023-11-30T05:53:52.406Z,54.00
2023-11-30T05:54:25.041Z,52.67
2023-11-30T05:54:58.784Z,51.67
2023-11-30T05:55:31.358Z,51.00
2023-11-30T05:56:04.038Z,50.33
2023-11-30T05:56:36.534Z,50.00
2023-11-30T05:57:09.137Z,51.00
2023-11-30T05:57:41.721Z,52.33
2023-11-30T05:58:14.262Z,54.67
2023-11-30T05:58:46.759Z,55.67
2023-11-30T05:59:19.248Z,56.33
2023-11-30T05:59:51.846Z,57.67
2023-11-30T06:00:24.475Z,59.67
2023-11-30T06:00:58.477Z,61.00
2023-11-30T06:01:31.048Z,61.00
2023-11-30T06:02:03.707Z,61.67
2023-11-30T06:02:36.263Z,61.67
2023-11-30T06:03:09.142Z,61.00
2023-11-30T06:03:41.941Z,61.00
2023-11-30T06:04:14.656Z,61.00
2023-11-30T06:04:54.897Z,60.33
2023-11-30T06:05:29.904Z,60.00
2023-11-30T06:06:02.476Z,60.67
2023-11-30T06:06:35.073Z,61.00
2023-11-30T06:07:07.878Z,67.33
2023-11-30T06:07:40.490Z,113.67
2023-11-30T06:08:13.169Z,150.00
2023-11-30T06:08:45.709Z,150.00
2023-11-30T06:09:18.247Z,145.33
2023-11-30T06:09:53.498Z,131.00
2023-11-30T06:10:31.441Z,118.67
2023-11-30T06:11:04.021Z,114.67
2023-11-30T06:11:37.279Z,108.67
2023-11-30T06:12:10.309Z,104.00
2023-11-30T06:12:42.955Z,101.33
2023-11-30T06:13:16.841Z,99.67
2023-11-30T06:13:49.460Z,98.00
2023-11-30T06:14:22.270Z,95.33
2023-11-30T06:14:54.780Z,93.67
2023-11-30T06:15:27.309Z,90.00
2023-11-30T06:15:59.868Z,84.67
2023-11-30T06:16:32.380Z,81.00
2023-11-30T06:17:05.079Z,80.00
2023-11-30T06:17:37.998Z,80.33
2023-11-30T06:18:10.591Z,79.67
2023-11-30T06:18:43.149Z,76.67
2023-11-30T06:19:15.685Z,76.67
2023-11-30T06:19:48.251Z,77.67
2023-11-30T06:20:20.762Z,78.00
2023-11-30T06:20:53.329Z,78.00
2023-11-30T06:21:25.945Z,79.33
2023-11-30T06:21:58.436Z,81.67
2023-11-30T06:22:30.941Z,87.00
2023-11-30T06:23:04.297Z,92.67
2023-11-30T06:23:37.419Z,98.00
2023-11-30T06:24:09.997Z,108.33
2023-11-30T06:24:42.506Z,106.67
2023-11-30T06:25:15.039Z,103.33
2023-11-30T06:25:47.578Z,101.33
2023-11-30T06:26:20.092Z,98.00
2023-11-30T06:26:52.634Z,96.00
2023-11-30T06:27:25.141Z,95.33
2023-11-30T06:27:57.729Z,94.67
2023-11-30T06:28:30.254Z,93.00
2023-11-30T06:29:02.773Z,88.33
2023-11-30T06:29:41.068Z,86.00
2023-11-30T06:30:13.828Z,86.00
2023-11-30T06:30:46.433Z,86.00
2023-11-30T06:31:18.947Z,87.00
2023-11-30T06:31:51.497Z,110.00
2023-11-30T06:32:24.025Z,156.67
2023-11-30T06:32:57.180Z,201.33
2023-11-30T06:33:29.855Z,231.67
2023-11-30T06:34:02.428Z,232.00
2023-11-30T06:34:36.201Z,207.00
2023-11-30T06:35:09.898Z,185.67
2023-11-30T06:35:44.580Z,174.00
2023-11-30T06:36:17.582Z,162.33
2023-11-30T06:36:50.143Z,155.33
2023-11-30T06:37:25.682Z,155.00
2023-11-30T06:37:58.226Z,157.33
2023-11-30T06:38:32.162Z,157.33
2023-11-30T06:41:17.685Z,161.67
2023-11-30T06:41:53.509Z,161.33
2023-11-30T06:43:30.858Z,173.00
2023-11-30T06:44:16.648Z,191.33
2023-11-30T06:44:49.384Z,186.67
2023-11-30T06:45:23.262Z,202.00
2023-11-30T06:45:55.866Z,233.67
2023-11-30T06:46:28.464Z,247.33
2023-11-30T06:47:03.892Z,252.00
2023-11-30T06:47:41.775Z,239.00
2023-11-30T06:48:14.501Z,223.67
2023-11-30T06:48:48.374Z,215.33
2023-11-30T06:49:21.651Z,213.67
2023-11-30T06:50:02.470Z,204.67
2023-11-30T06:50:47.962Z,164.33
2023-11-30T06:51:21.926Z,147.00
2023-11-30T06:52:05.158Z,154.67
2023-11-30T06:52:50.568Z,163.67
2023-11-30T06:54:24.373Z,195.00
2023-11-30T06:54:56.965Z,192.00
2023-11-30T06:55:37.201Z,189.00
2023-11-30T06:56:13.303Z,179.33
2023-11-30T06:56:45.859Z,174.33
2023-11-30T06:57:18.452Z,188.67
2023-11-30T06:57:51.016Z,216.00
2023-11-30T06:58:23.553Z,205.00
2023-11-30T06:58:56.094Z,205.00
2023-11-30T06:59:31.241Z,204.00
2023-11-30T07:00:15.360Z,209.00
2023-11-30T07:00:47.932Z,226.00
2023-11-30T07:01:25.225Z,212.00
2023-11-30T07:01:57.785Z,211.67
2023-11-30T07:02:30.336Z,239.67
2023-11-30T07:03:03.063Z,257.00
2023-11-30T07:03:42.527Z,249.00
2023-11-30T07:04:17.520Z,255.33
2023-11-30T07:04:50.243Z,288.00
2023-11-30T07:05:22.905Z,278.33
2023-11-30T07:05:55.787Z,245.33
2023-11-30T07:06:28.458Z,234.00
2023-11-30T07:07:01.336Z,233.67
2023-11-30T07:07:36.803Z,248.67
2023-11-30T07:08:10.001Z,288.33
2023-11-30T07:08:43.749Z,295.33
2023-11-30T07:09:19.140Z,315.00